Time;durP1;ratioP1;P1;durP2;ratioP2;P2;SDS_P1;SDS_P2;PMS_P1;PMS_P2;Temp;Humidity;BMP_temperature;BMP_pressure;BME280_temperature;BME280_humidity;BME280_pressure;Samples;Min_cycle;Max_cycle;Signal;HPM_P1;HPM_P2
2023/04/06 17:11:46;;;;;;;8.40;6.03;;;10.00;1.00;;;;;;6242712;22;20235;31
2023/04/06 17:14:11;;;;;;;9.67;6.53;;;9.80;1.00;;;;;;6204126;23;20182;-82
2023/04/06 17:16:37;;;;;;;7.97;6.23;;;9.80;1.00;;;;;;6177498;23;20182;-81
2023/04/06 17:19:02;;;;;;;11.83;6.60;;;9.60;1.00;;;;;;6178452;23;20208;-82
2023/04/06 17:21:28;;;;;;;7.83;6.20;;;9.50;1.00;;;;;;6207149;23;20155;-82
2023/04/06 17:23:53;;;;;;;8.70;6.20;;;9.50;1.00;;;;;;6179210;23;20241;-81
2023/04/06 17:26:20;;;;;;;9.57;6.03;;;9.30;1.00;;;;;;6206519;23;20488;-82
2023/04/06 17:28:46;;;;;;;6.30;5.70;;;9.20;1.00;;;;;;6204841;23;20629;-82
2023/04/06 17:31:12;;;;;;;7.50;6.50;;;9.10;1.00;;;;;;6180708;23;20240;-83
2023/04/06 17:33:39;;;;;;;7.30;6.33;;;8.90;1.00;;;;;;6207487;23;20155;-82
2023/04/06 17:36:06;;;;;;;7.33;6.23;;;8.80;1.00;;;;;;6206886;23;20174;-82
2023/04/06 17:38:32;;;;;;;8.47;6.53;;;8.70;1.00;;;;;;6205340;23;20185;-82
2023/04/06 17:40:58;;;;;;;7.80;6.30;;;8.50;1.00;;;;;;6205838;23;20154;-82
2023/04/06 17:43:24;;;;;;;7.00;6.07;;;8.40;1.00;;;;;;6206673;23;20154;-82
2023/04/06 17:45:50;;;;;;;9.07;6.60;;;8.30;1.00;;;;;;6205737;23;20189;-81
2023/04/06 17:48:16;;;;;;;8.13;6.73;;;8.30;1.00;;;;;;6205473;23;20158;-82
2023/04/06 17:50:43;;;;;;;8.53;6.37;;;8.20;1.00;;;;;;6205044;23;20186;-82
2023/04/06 17:53:08;;;;;;;7.77;6.97;;;8.10;1.00;;;;;;6205496;23;20161;-82
2023/04/06 17:55:35;;;;;;;9.23;6.90;;;8.00;1.00;;;;;;6207016;23;20155;-83
2023/04/06 17:58:01;;;;;;;8.60;7.40;;;7.90;1.00;;;;;;6205159;23;20192;-82
2023/04/06 18:00:27;;;;;;;8.10;7.10;;;7.80;1.00;;;;;;6204848;23;20178;-81
2023/04/06 18:02:53;;;;;;;7.87;7.07;;;7.80;1.00;;;;;;6204370;23;20192;-81
2023/04/06 18:05:19;;;;;;;8.83;7.93;;;7.70;1.00;;;;;;6202705;23;20162;-82
2023/04/06 18:07:45;;;;;;;9.97;8.20;;;7.60;1.00;;;;;;6204289;23;20154;-80
2023/04/06 18:10:11;;;;;;;9.47;6.93;;;7.60;1.00;;;;;;6203086;23;20243;-80
2023/04/06 18:12:37;;;;;;;9.30;8.40;;;7.60;1.00;;;;;;6211947;23;20622;-80
2023/04/06 18:15:03;;;;;;;10.67;9.53;;;7.50;1.00;;;;;;6231992;23;20169;-81
2023/04/06 18:17:29;;;;;;;9.70;8.53;;;7.40;1.00;;;;;;6207738;23;20558;-81
2023/04/06 18:19:55;;;;;;;10.40;9.30;;;7.40;1.00;;;;;;6231980;23;20503;-81
2023/04/06 18:22:20;;;;;;;9.63;8.10;;;7.30;1.00;;;;;;6231393;23;20161;-80
2023/04/06 18:24:46;;;;;;;10.53;9.00;;;7.20;1.00;;;;;;6209407;23;20146;-80
2023/04/06 18:27:11;;;;;;;10.37;8.70;;;7.20;1.00;;;;;;6232423;23;20169;-80
2023/04/06 18:29:38;;;;;;;9.37;8.47;;;7.10;1.00;;;;;;6232367;23;20182;-80
2023/04/06 18:32:05;;;;;;;10.73;8.87;;;7.10;1.00;;;;;;6207242;23;21057;-80
2023/04/06 18:34:30;;;;;;;10.13;8.50;;;7.00;1.00;;;;;;6230265;22;20162;-82
2023/04/06 18:36:56;;;;;;;10.00;8.53;;;7.00;1.00;;;;;;6232096;23;20308;-80
2023/04/06 18:39:22;;;;;;;10.60;9.57;;;7.00;1.00;;;;;;6207364;23;20370;-82
2023/04/06 18:41:47;;;;;;;10.40;9.30;;;6.80;1.00;;;;;;6232273;23;20158;-80
2023/04/06 18:44:13;;;;;;;45.33;40.43;;;6.70;1.00;;;;;;6206905;23;20814;-81
2023/04/06 18:46:38;;;;;;;79.57;57.07;;;6.70;1.00;;;;;;6228079;23;20169;-80
2023/04/06 18:49:04;;;;;;;74.03;66.03;;;6.70;1.00;;;;;;6225324;23;20186;-80
2023/04/06 18:51:30;;;;;;;40.17;36.03;;;6.60;1.00;;;;;;6227823;23;20224;-79
2023/04/06 18:53:56;;;;;;;23.27;20.67;;;6.50;1.00;;;;;;6230646;23;20162;-80
2023/04/06 18:56:22;;;;;;;34.30;29.73;;;6.40;1.00;;;;;;6207205;23;20170;-80
2023/04/06 18:58:48;;;;;;;34.17;30.57;;;6.40;1.00;;;;;;6230227;23;20178;-80
2023/04/06 19:01:27;;;;;;;18.53;15.03;;;6.30;1.00;;;;;;6230358;23;20158;-80
2023/04/06 19:03:54;;;;;;;14.40;12.90;;;6.30;1.00;;;;;;6228406;23;21045;-80
2023/04/06 19:06:20;;;;;;;14.07;12.57;;;6.10;1.00;;;;;;6230669;23;20196;-80
2023/04/06 19:08:47;;;;;;;14.13;11.50;;;6.00;1.00;;;;;;6229943;23;20182;-80
2023/04/06 19:11:13;;;;;;;14.33;12.10;;;6.00;1.00;;;;;;6206932;23;20162;-80
2023/04/06 19:13:39;;;;;;;12.57;11.27;;;5.90;1.00;;;;;;6207028;23;20170;-80
2023/04/06 19:16:09;;;;;;;12.67;10.87;;;5.90;1.00;;;;;;6230213;23;20186;-79
2023/04/06 19:18:36;;;;;;;11.63;10.43;;;5.80;1.00;;;;;;6229803;23;20258;-79
2023/04/06 19:21:03;;;;;;;13.97;11.93;;;5.80;1.00;;;;;;6207240;23;20149;-80
2023/04/06 19:23:29;;;;;;;14.35;12.93;;;5.70;1.00;;;;;;6229116;23;20377;-81
2023/04/06 19:25:55;;;;;;;12.73;11.43;;;5.70;1.00;;;;;;6230324;23;21157;-80
2023/04/06 19:28:21;;;;;;;13.37;11.97;;;5.60;1.00;;;;;;6230552;22;20154;-80
2023/04/06 19:30:46;;;;;;;12.33;11.00;;;5.60;1.00;;;;;;6230094;22;20178;-80
2023/04/06 19:33:15;;;;;;;12.97;11.23;;;5.50;1.00;;;;;;6230927;23;20164;-80
2023/04/06 19:35:41;;;;;;;13.90;11.40;;;5.50;1.00;;;;;;6231135;23;20154;-80
2023/04/06 19:38:06;;;;;;;14.67;12.10;;;5.50;1.00;;;;;;6229052;23;20530;-79
2023/04/06 19:40:32;;;;;;;13.03;11.73;;;5.40;1.00;;;;;;6228691;23;20178;-80
2023/04/06 19:42:58;;;;;;;13.33;10.77;;;5.40;1.00;;;;;;6229891;23;20151;-80
2023/04/06 19:45:23;;;;;;;13.23;11.83;;;5.30;1.00;;;;;;6230186;23;20162;-80
2023/04/06 19:47:49;;;;;;;14.93;12.30;;;5.20;1.00;;;;;;6229850;23;20594;-80
2023/04/06 19:50:14;;;;;;;14.17;12.67;;;5.30;1.00;;;;;;6206450;23;20954;-79
2023/04/06 19:52:40;;;;;;;13.83;12.43;;;5.30;1.00;;;;;;6206329;23;20155;-79
2023/04/06 19:55:06;;;;;;;16.10;12.47;;;5.20;1.00;;;;;;6230572;23;20684;-79
2023/04/06 19:57:31;;;;;;;15.63;12.50;;;5.20;1.00;;;;;;6206773;23;20572;-80
2023/04/06 19:59:57;;;;;;;13.43;11.87;;;5.20;1.00;;;;;;6206666;23;20175;-80
2023/04/06 20:02:23;;;;;;;15.17;12.27;;;5.30;1.00;;;;;;6228183;23;21096;-80
2023/04/06 20:04:48;;;;;;;13.47;12.07;;;5.30;1.00;;;;;;6230209;23;20164;-80
2023/04/06 20:07:14;;;;;;;14.30;11.77;;;5.30;1.00;;;;;;6230428;23;20220;-80
2023/04/06 20:09:40;;;;;;;14.47;12.90;;;5.20;1.00;;;;;;6230077;23;20646;-79
2023/04/06 20:12:05;;;;;;;14.50;12.93;;;5.10;1.00;;;;;;6206789;23;20166;-79
2023/04/06 20:14:31;;;;;;;15.63;13.17;;;5.10;1.00;;;;;;6207091;23;20146;-80
2023/04/06 20:16:57;;;;;;;14.30;12.80;;;4.90;1.00;;;;;;6230843;23;20208;-80
2023/04/06 20:19:22;;;;;;;17.70;12.77;;;4.90;1.00;;;;;;6229099;23;20177;-79
2023/04/06 20:21:48;;;;;;;13.97;12.40;;;4.90;1.00;;;;;;6229851;23;20470;-79
2023/04/06 20:24:14;;;;;;;15.50;13.93;;;5.00;1.00;;;;;;6228886;23;20541;-79
2023/04/06 20:26:39;;;;;;;14.63;13.13;;;5.00;1.00;;;;;;6210166;23;20162;-81
2023/04/06 20:29:05;;;;;;;16.17;13.07;;;4.90;1.00;;;;;;6209205;23;20178;-80
2023/04/06 20:31:31;;;;;;;14.83;13.10;;;4.90;1.00;;;;;;6208646;23;20216;-80
2023/04/06 20:33:56;;;;;;;35.13;26.20;;;4.90;1.00;;;;;;6212501;23;20165;-81
2023/04/06 20:36:22;;;;;;;63.03;45.40;;;4.90;1.00;;;;;;6212128;23;20174;-81
2023/04/06 20:38:47;;;;;;;21.13;17.97;;;4.90;1.00;;;;;;6211522;23;20552;-80
2023/04/06 20:41:13;;;;;;;30.47;23.87;;;4.90;1.00;;;;;;6235691;23;20166;-81
2023/04/06 20:43:39;;;;;;;25.80;22.83;;;4.90;1.00;;;;;;6236071;23;20154;-80
2023/04/06 20:46:06;;;;;;;20.47;17.63;;;5.00;1.00;;;;;;6235824;23;20170;-81
2023/04/06 20:48:34;;;;;;;19.87;16.60;;;5.60;1.00;;;;;;6235458;23;20155;-80
2023/04/06 20:51:02;;;;;;;18.10;16.03;;;5.10;1.00;;;;;;6211321;23;20253;-81
2023/04/06 20:53:27;;;;;;;18.07;15.83;;;5.00;1.00;;;;;;6211769;23;20151;-79
2023/04/06 20:55:53;;;;;;;18.70;16.53;;;5.10;1.00;;;;;;6235497;22;20173;-81
2023/04/06 20:58:19;;;;;;;19.73;17.47;;;5.20;1.00;;;;;;6212649;23;20150;-81
2023/04/06 21:00:46;;;;;;;17.77;15.87;;;5.20;1.00;;;;;;6235661;23;20231;-80
2023/04/06 21:03:11;;;;;;;17.87;15.80;;;5.20;1.00;;;;;;6233300;23;20158;-80
2023/04/06 21:05:37;;;;;;;16.20;14.50;;;5.10;1.00;;;;;;6212026;23;20154;-81
2023/04/06 21:08:02;;;;;;;19.50;16.40;;;5.00;1.00;;;;;;6212941;23;20162;-81
2023/04/06 21:10:28;;;;;;;17.70;15.90;;;5.00;1.00;;;;;;6212374;23;20193;-80
2023/04/06 21:12:54;;;;;;;16.07;14.37;;;5.10;1.00;;;;;;6237411;23;20186;-80
2023/04/06 21:15:19;;;;;;;19.13;16.53;;;5.10;1.00;;;;;;6211871;23;20158;-80
2023/04/06 21:17:45;;;;;;;28.33;23.53;;;5.00;1.00;;;;;;6210227;23;20224;-80
2023/04/06 21:20:10;;;;;;;21.40;18.20;;;5.10;1.00;;;;;;6232494;23;20211;-80
2023/04/06 21:22:36;;;;;;;17.07;15.37;;;5.20;1.00;;;;;;6231388;23;20618;-80
2023/04/06 21:25:02;;;;;;;19.10;17.00;;;5.10;1.00;;;;;;6204098;23;20961;-79
2023/04/06 21:27:27;;;;;;;17.70;14.47;;;5.00;1.00;;;;;;6227340;22;20192;-80
2023/04/06 21:29:53;;;;;;;18.40;16.40;;;5.00;1.00;;;;;;6226544;22;20201;-80
2023/04/06 21:32:18;;;;;;;19.70;17.57;;;4.90;1.00;;;;;;6204399;23;20654;-79
2023/04/06 21:34:45;;;;;;;16.10;13.93;;;4.90;1.00;;;;;;6231359;23;20188;-80
2023/04/06 21:37:11;;;;;;;47.53;33.77;;;4.80;1.00;;;;;;6210677;23;20162;-80
2023/04/06 21:39:38;;;;;;;25.70;20.13;;;4.70;1.00;;;;;;6209545;23;20174;-80
2023/04/06 21:42:04;;;;;;;62.77;38.00;;;4.70;1.00;;;;;;6233509;22;20167;-80
2023/04/06 21:44:29;;;;;;;46.53;31.37;;;4.70;1.00;;;;;;6237045;23;20185;-80
2023/04/06 21:46:55;;;;;;;24.33;18.90;;;4.70;1.00;;;;;;6239621;23;20162;-81
2023/04/06 21:49:20;;;;;;;25.97;20.93;;;4.70;1.00;;;;;;6239532;23;20178;-81
2023/04/06 21:51:46;;;;;;;18.10;16.20;;;4.70;1.00;;;;;;6238473;23;20147;-80
2023/04/06 21:54:12;;;;;;;19.23;17.17;;;4.60;1.00;;;;;;6215609;23;20233;-80
2023/04/06 21:56:38;;;;;;;19.13;17.10;;;4.40;1.00;;;;;;6215809;23;20618;-81
2023/04/06 21:59:04;;;;;;;19.93;17.77;;;4.20;1.00;;;;;;6215081;23;20235;-79
2023/04/06 22:01:29;;;;;;;20.50;17.60;;;4.00;1.00;;;;;;6239480;22;20159;-80
2023/04/06 22:03:55;;;;;;;20.33;18.20;;;4.00;1.00;;;;;;6236494;22;20165;-81
2023/04/06 22:06:22;;;;;;;35.43;30.10;;;3.90;1.00;;;;;;6211217;23;20895;-80
2023/04/06 22:08:48;;;;;;;18.70;16.80;;;4.40;1.00;;;;;;6214378;23;20645;-80
2023/04/06 22:11:14;;;;;;;19.27;17.27;;;3.80;1.00;;;;;;6216006;23;20162;-80
2023/04/06 22:13:39;;;;;;;21.90;18.77;;;3.70;1.00;;;;;;6214766;23;20610;-80
2023/04/06 22:16:06;;;;;;;18.47;16.53;;;3.70;1.00;;;;;;6215339;23;20158;-80
2023/04/06 22:18:32;;;;;;;20.70;17.67;;;3.70;1.00;;;;;;6214473;23;20178;-80
2023/04/06 22:20:58;;;;;;;17.17;15.40;;;3.80;1.00;;;;;;6237995;23;20567;-81
2023/04/06 22:23:24;;;;;;;19.43;17.10;;;3.70;1.00;;;;;;6238577;23;20158;-81
2023/04/06 22:25:51;;;;;;;19.53;17.50;;;3.90;1.00;;;;;;6238856;23;20155;-80
2023/04/06 22:28:16;;;;;;;16.03;14.37;;;4.10;1.00;;;;;;6214092;23;20211;-80
2023/04/06 22:30:42;;;;;;;19.87;17.73;;;4.30;1.00;;;;;;6213267;23;20174;-80
2023/04/06 22:33:07;;;;;;;19.03;17.03;;;4.40;1.00;;;;;;6236391;23;20167;-80
2023/04/06 22:35:33;;;;;;;18.93;16.97;;;4.50;1.00;;;;;;6235464;23;20194;-80
2023/04/06 22:38:00;;;;;;;18.07;16.27;;;4.50;1.00;;;;;;6236721;23;20193;-80
2023/04/06 22:40:26;;;;;;;16.13;14.53;;;4.60;1.00;;;;;;6237550;22;20530;-80
2023/04/06 22:42:52;;;;;;;15.40;13.87;;;4.60;1.00;;;;;;6212954;23;20178;-80
2023/04/06 22:45:17;;;;;;;14.37;12.83;;;4.50;1.00;;;;;;6211157;23;20209;-80
2023/04/06 22:47:43;;;;;;;14.77;13.27;;;4.50;1.00;;;;;;6234141;23;20169;-80
2023/04/06 22:50:09;;;;;;;15.97;14.23;;;4.50;1.00;;;;;;6232245;23;20265;-80
2023/04/06 22:52:35;;;;;;;14.33;12.90;;;4.60;1.00;;;;;;6209845;23;20165;-79
2023/04/06 22:55:01;;;;;;;14.50;13.07;;;4.50;1.00;;;;;;6208956;23;20203;-79
2023/04/06 22:57:28;;;;;;;14.07;12.67;;;4.60;1.00;;;;;;6207096;23;20182;-79
2023/04/06 22:59:54;;;;;;;14.70;13.20;;;4.50;1.00;;;;;;6208895;23;20201;-79
2023/04/06 23:02:19;;;;;;;14.80;13.20;;;4.50;1.00;;;;;;6210644;23;20630;-80
2023/04/06 23:04:45;;;;;;;13.87;12.33;;;4.50;1.00;;;;;;6212860;23;20181;-80
2023/04/06 23:07:14;;;;;;;15.10;12.70;;;4.50;1.00;;;;;;6236298;23;20212;-80
2023/04/06 23:09:43;;;;;;;15.47;12.80;;;4.60;1.00;;;;;;6213829;23;20196;-80
2023/04/06 23:12:10;;;;;;;14.00;12.60;;;4.70;1.00;;;;;;6215137;23;20173;-79
2023/04/06 23:14:36;;;;;;;13.83;12.37;;;4.70;1.00;;;;;;6214169;23;20192;-80
2023/04/06 23:17:01;;;;;;;14.13;12.67;;;4.60;1.00;;;;;;6214228;23;20183;-80
2023/04/06 23:19:27;;;;;;;14.60;13.10;;;4.60;1.00;;;;;;6213571;23;20170;-79
2023/04/06 23:21:54;;;;;;;14.17;12.67;;;4.50;1.00;;;;;;6213660;23;20182;-80
2023/04/06 23:24:20;;;;;;;15.43;13.10;;;4.40;1.00;;;;;;6214134;23;20503;-80
2023/04/06 23:26:46;;;;;;;13.97;12.57;;;4.40;1.00;;;;;;6214087;23;20150;-80
2023/04/06 23:29:12;;;;;;;13.57;12.17;;;4.50;1.00;;;;;;6213433;23;20178;-80
2023/04/06 23:31:37;;;;;;;13.77;12.47;;;4.60;1.00;;;;;;6214134;23;20181;-80
2023/04/06 23:34:03;;;;;;;14.27;12.77;;;4.60;1.00;;;;;;6213243;23;20621;-80
2023/04/06 23:36:28;;;;;;;13.40;12.00;;;4.50;1.00;;;;;;6213620;23;20175;-80
2023/04/06 23:38:55;;;;;;;13.83;12.33;;;4.50;1.00;;;;;;6213010;23;20538;-80
2023/04/06 23:41:21;;;;;;;12.80;11.50;;;4.60;1.00;;;;;;6210059;23;20486;-79
2023/04/06 23:43:46;;;;;;;13.70;12.33;;;4.50;1.00;;;;;;6231640;23;20186;-79
2023/04/06 23:46:15;;;;;;;13.77;12.37;;;4.60;1.00;;;;;;6207505;23;20646;-79
2023/04/06 23:48:41;;;;;;;13.47;11.20;;;4.50;1.00;;;;;;6206929;23;21054;-79
2023/04/06 23:51:07;;;;;;;13.27;11.87;;;4.40;1.00;;;;;;6207652;23;20155;-79
2023/04/06 23:53:32;;;;;;;15.37;12.60;;;4.40;1.00;;;;;;6229994;23;20162;-79
2023/04/06 23:55:58;;;;;;;12.63;11.40;;;4.40;1.00;;;;;;6206294;23;20642;-79
2023/04/06 23:58:23;;;;;;;13.67;12.27;;;4.30;1.00;;;;;;6230615;23;20637;-79
